Time,TemperatureF,DewpointF,PressureIn,WindDirection,WindDirectionDegrees,WindSpeedMPH,WindSpeedGustMPH,Humidity,HourlyPrecipIn,Conditions,Clouds,dailyrainin,SoftwareType,DateUTC
2013-07-02 00:02:00,69.2,67.4,29.90,North,11,0.0,0.0,94,0.00,,,0.00,Wunderground v.1.15,2013-07-02 05:02:00,
2013-07-02 00:08:00,69.0,67.2,29.90,North,11,0.0,0.0,94,0.00,,,0.00,Wunderground v.1.15,2013-07-02 05:08:00,
2013-07-02 00:13:00,68.9,67.4,29.90,North,11,0.0,0.0,95,0.00,,,0.00,Wunderground v.1.15,2013-07-02 05:13:00,
2013-07-02 00:23:00,68.8,67.3,29.90,North,11,0.0,0.0,95,0.00,,,0.00,Wunderground v.1.15,2013-07-02 05:23:00,
2013-07-02 00:28:00,68.7,67.2,29.90,North,11,0.0,0.0,95,0.00,,,0.00,Wunderground v.1.15,2013-07-02 05:28:00,
2013-07-02 00:33:00,68.6,67.1,29.90,North,11,0.0,0.0,95,0.00,,,0.00,Wunderground v.1.15,2013-07-02 05:33:00,
2013-07-02 00:38:00,68.6,67.1,29.90,North,11,0.0,0.0,95,0.00,,,0.00,Wunderground v.1.15,2013-07-02 05:38:00,
2013-07-02 00:43:00,68.5,67.0,29.90,North,11,0.0,0.0,95,0.00,,,0.00,Wunderground v.1.15,2013-07-02 05:43:00,
2013-07-02 00:48:00,68.4,66.9,29.90,North,11,0.0,0.0,95,0.00,,,0.00,Wunderground v.1.15,2013-07-02 05:48:00,
2013-07-02 00:57:00,68.2,66.7,29.90,North,11,0.0,0.0,95,0.00,,,0.00,Wunderground v.1.15,2013-07-02 05:57:00,
2013-07-02 01:03:00,68.1,66.6,29.90,North,11,0.0,0.0,95,0.00,,,0.00,Wunderground v.1.15,2013-07-02 06:03:00,
2013-07-02 01:08:00,68.1,66.6,29.89,North,11,0.0,0.0,95,0.00,,,0.00,Wunderground v.1.15,2013-07-02 06:08:00,
2013-07-02 01:13:00,68.0,66.5,29.89,North,11,0.0,0.0,95,0.00,,,0.00,Wunderground v.1.15,2013-07-02 06:13:00,
2013-07-02 01:18:00,67.9,66.7,29.89,North,11,0.0,0.0,96,0.00,,,0.00,Wunderground v.1.15,2013-07-02 06:18:00,
2013-07-02 01:28:00,67.9,66.7,29.89,North,11,0.0,0.0,96,0.00,,,0.00,Wunderground v.1.15,2013-07-02 06:28:00,
2013-07-02 01:33:00,67.7,66.5,29.89,North,11,0.0,0.0,96,0.00,,,0.00,Wunderground v.1.15,2013-07-02 06:33:00,
2013-07-02 01:38:00,67.6,66.4,29.89,North,11,0.0,0.0,96,0.00,,,0.00,Wunderground v.1.15,2013-07-02 06:38:00,
2013-07-02 01:43:00,67.6,66.4,29.89,North,11,0.0,0.0,96,0.00,,,0.00,Wunderground v.1.15,2013-07-02 06:43:00,
2013-07-02 01:48:00,67.5,66.3,29.88,North,11,0.0,0.0,96,0.00,,,0.00,Wunderground v.1.15,2013-07-02 06:48:00,
2013-07-02 01:53:00,67.4,66.2,29.89,North,11,0.0,0.0,96,0.00,,,0.00,Wunderground v.1.15,2013-07-02 06:53:00,
2013-07-02 02:02:00,67.2,66.0,29.89,North,11,0.0,0.0,96,0.00,,,0.00,Wunderground v.1.15,2013-07-02 07:02:00,
2013-07-02 02:08:00,67.0,65.8,29.89,North,11,0.0,0.0,96,0.00,,,0.00,Wunderground v.1.15,2013-07-02 07:08:00,
2013-07-02 02:13:00,66.9,65.7,29.89,North,11,0.0,0.0,96,0.00,,,0.00,Wunderground v.1.15,2013-07-02 07:13:00,
2013-07-02 02:18:00,66.9,65.7,29.89,North,11,0.0,0.0,96,0.00,,,0.00,Wunderground v.1.15,2013-07-02 07:18:00,
2013-07-02 02:23:00,66.8,65.6,29.89,North,11,0.0,0.0,96,0.00,,,0.00,Wunderground v.1.15,2013-07-02 07:23:00,
2013-07-02 02:33:00,66.8,65.6,29.89,North,11,0.0,0.0,96,0.00,,,0.00,Wunderground v.1.15,2013-07-02 07:33:00,
2013-07-02 02:38:00,66.7,65.5,29.89,North,11,0.0,0.0,96,0.00,,,0.00,Wunderground v.1.15,2013-07-02 07:38:00,
2013-07-02 02:43:00,66.7,65.5,29.89,North,11,0.0,0.0,96,0.00,,,0.00,Wunderground v.1.15,2013-07-02 07:43:00,
2013-07-02 02:48:00,66.7,65.5,29.89,North,11,0.0,0.0,96,0.00,,,0.00,Wunderground v.1.15,2013-07-02 07:48:00,
2013-07-02 02:53:00,66.7,65.5,29.89,North,11,0.0,0.0,96,0.00,,,0.00,Wunderground v.1.15,2013-07-02 07:53:00,
2013-07-02 02:58:00,66.7,65.5,29.89,North,11,0.0,0.0,96,0.00,,,0.00,Wunderground v.1.15,2013-07-02 07:58:00,
2013-07-02 03:07:00,66.6,65.4,29.89,North,11,0.0,0.0,96,0.00,,,0.00,Wunderground v.1.15,2013-07-02 08:07:00,
2013-07-02 03:13:00,66.5,65.3,29.89,North,11,0.0,0.0,96,0.00,,,0.00,Wunderground v.1.15,2013-07-02 08:13:00,
2013-07-02 03:18:00,66.5,65.3,29.89,North,11,0.0,0.0,96,0.00,,,0.00,Wunderground v.1.15,2013-07-02 08:18:00,
2013-07-02 03:23:00,66.6,65.4,29.89,North,11,0.0,0.0,96,0.00,,,0.00,Wunderground v.1.15,2013-07-02 08:23:00,
2013-07-02 03:28:00,66.6,65.4,29.89,North,11,0.0,0.0,96,0.00,,,0.00,Wunderground v.1.15,2013-07-02 08:28:00,
2013-07-02 03:38:00,66.5,65.3,29.89,North,11,0.0,0.0,96,0.00,,,0.00,Wunderground v.1.15,2013-07-02 08:38:00,
2013-07-02 03:43:00,66.5,65.3,29.89,North,11,0.0,0.0,96,0.00,,,0.00,Wunderground v.1.15,2013-07-02 08:43:00,
2013-07-02 03:48:00,66.5,65.3,29.89,North,11,0.0,0.0,96,0.00,,,0.00,Wunderground v.1.15,2013-07-02 08:48:00,
2013-07-02 03:53:00,66.5,65.3,29.89,North,11,0.0,0.0,96,0.00,,,0.00,Wunderground v.1.15,2013-07-02 08:53:00,
2013-07-02 03:58:00,66.4,65.2,29.90,North,11,0.0,0.0,96,0.00,,,0.00,Wunderground v.1.15,2013-07-02 08:58:00,
2013-07-02 04:03:00,66.2,65.0,29.90,North,11,0.0,0.0,96,0.00,,,0.00,Wunderground v.1.15,2013-07-02 09:03:00,
2013-07-02 04:13:00,65.8,64.6,29.90,North,11,0.0,0.0,96,0.00,,,0.00,Wunderground v.1.15,2013-07-02 09:13:00,
2013-07-02 04:18:00,65.7,64.5,29.90,North,11,0.0,0.0,96,0.00,,,0.00,Wunderground v.1.15,2013-07-02 09:18:00,
2013-07-02 04:23:00,65.7,64.5,29.90,North,11,0.0,0.0,96,0.00,,,0.00,Wunderground v.1.15,2013-07-02 09:23:00,
2013-07-02 04:28:00,65.8,64.6,29.90,North,11,0.0,0.0,96,0.00,,,0.00,Wunderground v.1.15,2013-07-02 09:28:00,
2013-07-02 04:33:00,65.8,64.6,29.91,North,11,0.0,0.0,96,0.00,,,0.00,Wunderground v.1.15,2013-07-02 09:33:00,
2013-07-02 04:43:00,65.9,65.0,29.91,North,11,0.0,0.0,97,0.00,,,0.00,Wunderground v.1.15,2013-07-02 09:43:00,
2013-07-02 04:48:00,66.0,65.1,29.91,North,11,0.0,0.0,97,0.00,,,0.00,Wunderground v.1.15,2013-07-02 09:48:00,
2013-07-02 04:53:00,66.1,65.2,29.91,North,11,0.0,0.0,97,0.00,,,0.00,Wunderground v.1.15,2013-07-02 09:53:00,
2013-07-02 04:58:00,66.2,65.0,29.92,North,11,0.0,0.0,96,0.00,,,0.00,Wunderground v.1.15,2013-07-02 09:58:00,
2013-07-02 05:03:00,66.3,65.1,29.92,North,11,0.0,0.0,96,0.00,,,0.00,Wunderground v.1.15,2013-07-02 10:03:00,
2013-07-02 05:13:00,66.4,65.5,29.92,North,11,0.0,0.0,97,0.00,,,0.00,Wunderground v.1.15,2013-07-02 10:13:00,
2013-07-02 05:18:00,66.5,65.3,29.92,North,11,0.0,0.0,96,0.00,,,0.00,Wunderground v.1.15,2013-07-02 10:18:00,
2013-07-02 05:23:00,66.7,65.8,29.92,North,11,0.0,0.0,97,0.00,,,0.00,Wunderground v.1.15,2013-07-02 10:23:00,
2013-07-02 05:28:00,66.8,65.6,29.92,North,11,0.0,0.0,96,0.00,,,0.00,Wunderground v.1.15,2013-07-02 10:28:00,
2013-07-02 05:33:00,66.8,65.6,29.92,North,11,0.0,0.0,96,0.00,,,0.00,Wunderground v.1.15,2013-07-02 10:33:00,
2013-07-02 05:38:00,66.7,65.5,29.92,North,11,0.0,0.0,96,0.00,,,0.00,Wunderground v.1.15,2013-07-02 10:38:00,
2013-07-02 05:48:00,66.9,65.7,29.92,North,11,0.0,0.0,96,0.00,,,0.00,Wunderground v.1.15,2013-07-02 10:48:00,
2013-07-02 05:53:00,67.2,66.0,29.92,North,11,0.0,0.0,96,0.00,,,0.00,Wunderground v.1.15,2013-07-02 10:53:00,
2013-07-02 05:58:00,67.4,65.9,29.92,North,11,0.0,0.0,95,0.00,,,0.00,Wunderground v.1.15,2013-07-02 10:58:00,
2013-07-02 06:03:00,67.5,66.0,29.93,North,11,0.0,0.0,95,0.00,,,0.00,Wunderground v.1.15,2013-07-02 11:03:00,
2013-07-02 06:08:00,67.5,66.0,29.92,North,11,0.0,0.0,95,0.00,,,0.00,Wunderground v.1.15,2013-07-02 11:08:00,
2013-07-02 06:13:00,67.5,66.0,29.93,North,11,0.0,0.0,95,0.00,,,0.00,Wunderground v.1.15,2013-07-02 11:13:00,
2013-07-02 06:23:00,67.6,66.1,29.93,North,11,0.0,0.0,95,0.00,,,0.00,Wunderground v.1.15,2013-07-02 11:23:00,
2013-07-02 06:28:00,67.6,66.1,29.93,North,11,0.0,0.0,95,0.00,,,0.00,Wunderground v.1.15,2013-07-02 11:28:00,
2013-07-02 06:33:00,67.6,66.1,29.93,North,11,0.0,0.0,95,0.00,,,0.00,Wunderground v.1.15,2013-07-02 11:33:00,
2013-07-02 06:38:00,67.6,66.1,29.93,North,11,0.0,0.0,95,0.00,,,0.00,Wunderground v.1.15,2013-07-02 11:38:00,
2013-07-02 06:43:00,67.5,66.0,29.93,North,11,0.0,0.0,95,0.00,,,0.00,Wunderground v.1.15,2013-07-02 11:43:00,
2013-07-02 06:53:00,67.7,66.2,29.94,North,11,0.0,0.0,95,0.00,,,0.00,Wunderground v.1.15,2013-07-02 11:53:00,
2013-07-02 06:58:00,67.9,66.1,29.94,North,11,0.0,0.0,94,0.00,,,0.00,Wunderground v.1.15,2013-07-02 11:58:00,
2013-07-02 07:03:00,68.1,66.3,29.95,North,11,0.0,0.0,94,0.00,,,0.00,Wunderground v.1.15,2013-07-02 12:03:00,
2013-07-02 07:08:00,68.2,66.7,29.95,North,11,0.0,0.0,95,0.00,,,0.00,Wunderground v.1.15,2013-07-02 12:08:00,
2013-07-02 07:13:00,68.3,66.8,29.95,North,11,0.0,0.0,95,0.00,,,0.00,Wunderground v.1.15,2013-07-02 12:13:00,
2013-07-02 07:18:00,68.4,66.9,29.95,North,11,0.0,0.0,95,0.00,,,0.00,Wunderground v.1.15,2013-07-02 12:18:00,
2013-07-02 07:28:00,68.8,67.3,29.95,North,11,0.0,0.0,95,0.00,,,0.00,Wunderground v.1.15,2013-07-02 12:28:00,
2013-07-02 07:33:00,69.0,66.9,29.95,North,11,0.0,0.0,93,0.00,,,0.00,Wunderground v.1.15,2013-07-02 12:33:00,
2013-07-02 07:38:00,69.4,67.6,29.95,North,11,0.0,0.0,94,0.00,,,0.00,Wunderground v.1.15,2013-07-02 12:38:00,
2013-07-02 07:43:00,69.7,67.9,29.95,North,11,0.0,0.0,94,0.00,,,0.00,Wunderground v.1.15,2013-07-02 12:43:00,
2013-07-02 07:48:00,70.1,68.0,29.95,North,11,0.0,0.0,93,0.00,,,0.00,Wunderground v.1.15,2013-07-02 12:48:00,
2013-07-02 07:58:00,71.5,68.4,29.96,NNE,13,0.0,2.0,90,0.00,,,0.00,Wunderground v.1.15,2013-07-02 12:58:00,
2013-07-02 08:03:00,72.2,68.4,29.96,NNE,15,1.0,1.0,88,0.00,,,0.00,Wunderground v.1.15,2013-07-02 13:03:00,
2013-07-02 08:13:00,73.2,69.4,29.96,North,9,1.0,1.0,88,0.00,,,0.00,Wunderground v.1.15,2013-07-02 13:13:00,
2013-07-02 08:18:00,73.4,69.3,29.96,North,11,0.0,1.0,87,0.00,,,0.00,Wunderground v.1.15,2013-07-02 13:18:00,
2013-07-02 08:23:00,73.8,69.3,29.96,NNE,14,0.0,0.0,86,0.00,,,0.00,Wunderground v.1.15,2013-07-02 13:23:00,
2013-07-02 08:33:00,75.0,69.1,29.96,NE,40,1.0,1.0,82,0.00,,,0.00,Wunderground v.1.15,2013-07-02 13:33:00,
2013-07-02 08:38:00,75.4,69.5,29.96,NNE,30,1.0,1.0,82,0.00,,,0.00,Wunderground v.1.15,2013-07-02 13:38:00,
2013-07-02 08:43:00,75.9,69.6,29.96,ENE,59,1.0,1.0,81,0.00,,,0.00,Wunderground v.1.15,2013-07-02 13:43:00,
2013-07-02 08:48:00,76.7,69.7,29.96,NNE,26,0.0,1.0,79,0.00,,,0.00,Wunderground v.1.15,2013-07-02 13:48:00,
2013-07-02 08:57:00,77.4,70.4,29.96,North,5,1.0,1.0,79,0.00,,,0.00,Wunderground v.1.15,2013-07-02 13:57:00,
2013-07-02 09:03:00,78.2,70.4,29.96,ESE,120,1.0,1.0,77,0.00,,,0.00,Wunderground v.1.15,2013-07-02 14:03:00,
2013-07-02 09:13:00,79.8,70.8,29.96,NE,42,0.0,0.0,74,0.00,,,0.00,Wunderground v.1.15,2013-07-02 14:13:00,
2013-07-02 09:22:00,79.4,70.4,29.96,NNE,21,1.0,1.0,74,0.00,,,0.00,Wunderground v.1.15,2013-07-02 14:22:00,
2013-07-02 09:27:00,79.4,70.4,29.96,NNE,20,1.0,1.0,74,0.00,,,0.00,Wunderground v.1.15,2013-07-02 14:27:00,
2013-07-02 09:33:00,79.8,70.0,29.97,NNE,14,1.0,1.0,72,0.00,,,0.00,Wunderground v.1.15,2013-07-02 14:33:00,
2013-07-02 09:38:00,80.2,70.4,29.97,NNE,14,0.0,1.0,72,0.00,,,0.00,Wunderground v.1.15,2013-07-02 14:38:00,
2013-07-02 09:43:00,80.8,70.5,29.96,ENE,65,0.0,0.0,71,0.00,,,0.00,Wunderground v.1.15,2013-07-02 14:43:00,
2013-07-02 09:52:00,81.0,70.3,29.97,NNE,19,1.0,1.0,70,0.00,,,0.00,Wunderground v.1.15,2013-07-02 14:52:00,
2013-07-02 09:57:00,81.2,70.1,29.97,NNE,15,0.0,1.0,69,0.00,,,0.00,Wunderground v.1.15,2013-07-02 14:57:00,
2013-07-02 10:02:00,81.9,70.3,29.97,North,360,0.0,4.0,68,0.00,,,0.00,Wunderground v.1.15,2013-07-02 15:02:00,
2013-07-02 10:07:00,81.7,70.1,29.97,North,355,1.0,4.0,68,0.00,,,0.00,Wunderground v.1.15,2013-07-02 15:07:00,
2013-07-02 10:13:00,82.6,71.0,29.96,NNE,32,1.0,1.0,68,0.00,,,0.00,Wunderground v.1.15,2013-07-02 15:13:00,
2013-07-02 10:23:00,83.0,69.1,29.96,NNE,19,0.0,2.0,63,0.00,,,0.00,Wunderground v.1.15,2013-07-02 15:23:00,
2013-07-02 10:28:00,82.9,69.9,29.96,NNE,22,1.0,2.0,65,0.00,,,0.00,Wunderground v.1.15,2013-07-02 15:28:00,
2013-07-02 10:33:00,83.7,71.1,29.96,NNE,15,0.0,3.0,66,0.00,,,0.00,Wunderground v.1.15,2013-07-02 15:33:00,
2013-07-02 10:43:00,83.8,68.9,29.96,NNE,12,0.0,3.0,61,0.00,,,0.00,Wunderground v.1.15,2013-07-02 15:43:00,
2013-07-02 10:48:00,83.4,69.0,29.96,NE,36,1.0,3.0,62,0.00,,,0.00,Wunderground v.1.15,2013-07-02 15:48:00,
2013-07-02 10:53:00,83.2,68.8,29.96,North,11,2.0,2.0,62,0.00,,,0.00,Wunderground v.1.15,2013-07-02 15:53:00,
2013-07-02 10:58:00,83.4,69.5,29.96,NNW,333,2.0,2.0,63,0.00,,,0.00,Wunderground v.1.15,2013-07-02 15:58:00,
2013-07-02 11:03:00,84.3,69.9,29.96,NNW,333,1.0,1.0,62,0.00,,,0.00,Wunderground v.1.15,2013-07-02 16:03:00,
2013-07-02 11:13:00,86.3,70.8,29.96,NNW,333,0.0,0.0,60,0.00,,,0.00,Wunderground v.1.15,2013-07-02 16:13:00,
2013-07-02 11:23:00,87.7,70.6,29.97,NNW,333,0.0,0.0,57,0.00,,,0.00,Wunderground v.1.15,2013-07-02 16:23:00,
2013-07-02 11:28:00,86.3,69.3,29.97,North,5,0.0,4.0,57,0.00,,,0.00,Wunderground v.1.15,2013-07-02 16:28:00,
2013-07-02 11:33:00,84.8,68.4,29.97,NNE,17,2.0,2.0,58,0.00,,,0.00,Wunderground v.1.15,2013-07-02 16:33:00,
2013-07-02 11:38:00,85.3,69.8,29.97,NNE,22,2.0,2.0,60,0.00,,,0.00,Wunderground v.1.15,2013-07-02 16:38:00,
2013-07-02 11:48:00,86.8,69.7,29.96,NNE,17,0.0,0.0,57,0.00,,,0.00,Wunderground v.1.15,2013-07-02 16:48:00,
2013-07-02 11:53:00,86.8,71.2,29.96,NNE,12,0.0,0.0,60,0.00,,,0.00,Wunderground v.1.15,2013-07-02 16:53:00,
2013-07-02 11:58:00,87.7,69.5,29.96,NNE,19,0.0,0.0,55,0.00,,,0.00,Wunderground v.1.15,2013-07-02 16:58:00,
2013-07-02 12:03:00,87.9,69.7,29.96,North,349,0.0,0.0,55,0.00,,,0.00,Wunderground v.1.15,2013-07-02 17:03:00,
2013-07-02 12:13:00,87.2,69.1,29.96,NNE,29,0.0,1.0,55,0.00,,,0.00,Wunderground v.1.15,2013-07-02 17:13:00,
2013-07-02 12:18:00,87.0,69.9,29.96,NNE,22,0.0,1.0,57,0.00,,,0.00,Wunderground v.1.15,2013-07-02 17:18:00,
2013-07-02 12:23:00,87.0,68.9,29.96,NE,36,0.0,2.0,55,0.00,,,0.00,Wunderground v.1.15,2013-07-02 17:23:00,
2013-07-02 12:28:00,87.7,71.6,29.96,NNE,19,0.0,2.0,59,0.00,,,0.00,Wunderground v.1.15,2013-07-02 17:28:00,
2013-07-02 12:33:00,88.3,70.1,29.96,WNW,301,0.0,0.0,55,0.00,,,0.00,Wunderground v.1.15,2013-07-02 17:33:00,
2013-07-02 12:38:00,88.8,70.0,29.96,North,360,0.0,0.0,54,0.00,,,0.00,Wunderground v.1.15,2013-07-02 17:38:00,
2013-07-02 12:43:00,89.7,69.7,29.96,North,9,0.0,0.0,52,0.00,,,0.00,Wunderground v.1.15,2013-07-02 17:43:00,
2013-07-02 12:53:00,90.1,70.7,29.95,NNW,345,0.0,0.0,53,0.00,,,0.00,Wunderground v.1.15,2013-07-02 17:53:00,
2013-07-02 12:58:00,90.2,70.2,29.96,NNE,30,0.0,3.0,52,0.00,,,0.00,Wunderground v.1.15,2013-07-02 17:58:00,
2013-07-02 13:03:00,90.0,72.2,29.95,NNE,17,0.0,0.0,56,0.00,,,0.00,Wunderground v.1.15,2013-07-02 18:03:00,
2013-07-02 13:08:00,89.9,72.1,29.95,NW,311,0.0,1.0,56,0.00,,,0.00,Wunderground v.1.15,2013-07-02 18:08:00,
2013-07-02 13:13:00,90.4,70.4,29.95,NNW,338,0.0,0.0,52,0.00,,,0.00,Wunderground v.1.15,2013-07-02 18:13:00,
2013-07-02 13:23:00,89.6,71.8,29.95,NNE,29,1.0,5.0,56,0.00,,,0.00,Wunderground v.1.15,2013-07-02 18:23:00,
2013-07-02 13:28:00,88.6,68.2,29.95,NNE,24,1.0,5.0,51,0.00,,,0.00,Wunderground v.1.15,2013-07-02 18:28:00,
2013-07-02 13:33:00,86.9,69.8,29.95,NNE,15,1.0,2.0,57,0.00,,,0.00,Wunderground v.1.15,2013-07-02 18:33:00,
2013-07-02 13:38:00,85.6,69.6,29.95,NNE,25,1.0,2.0,59,0.00,,,0.00,Wunderground v.1.15,2013-07-02 18:38:00,
2013-07-02 13:43:00,85.3,70.8,29.95,NNE,14,1.0,1.0,62,0.00,,,0.00,Wunderground v.1.15,2013-07-02 18:43:00,
2013-07-02 13:48:00,85.5,69.5,29.95,NNE,14,0.0,1.0,59,0.00,,,0.00,Wunderground v.1.15,2013-07-02 18:48:00,
2013-07-02 13:58:00,85.3,69.3,29.94,NNE,23,0.0,0.0,59,0.00,,,0.00,Wunderground v.1.15,2013-07-02 18:58:00,
2013-07-02 14:03:00,85.4,69.4,29.94,NNE,23,0.0,0.0,59,0.00,,,0.00,Wunderground v.1.15,2013-07-02 19:03:00,
2013-07-02 14:13:00,85.7,69.7,29.94,NNE,22,0.0,0.0,59,0.00,,,0.00,Wunderground v.1.15,2013-07-02 19:13:00,
2013-07-02 14:22:00,86.3,70.8,29.94,NNE,23,0.0,0.0,60,0.00,,,0.00,Wunderground v.1.15,2013-07-02 19:22:00,
2013-07-02 14:28:00,86.4,71.8,29.94,NNE,13,0.0,0.0,62,0.00,,,0.00,Wunderground v.1.15,2013-07-02 19:28:00,
2013-07-02 14:33:00,86.4,72.3,29.94,NNE,13,0.0,0.0,63,0.00,,,0.00,Wunderground v.1.15,2013-07-02 19:33:00,
2013-07-02 14:38:00,86.1,71.6,29.94,NNE,13,0.0,0.0,62,0.00,,,0.00,Wunderground v.1.15,2013-07-02 19:38:00,
2013-07-02 14:43:00,85.6,71.1,29.93,NNE,19,0.0,0.0,62,0.00,,,0.00,Wunderground v.1.15,2013-07-02 19:43:00,
2013-07-02 14:52:00,85.9,70.9,29.93,NNE,19,0.0,0.0,61,0.00,,,0.00,Wunderground v.1.15,2013-07-02 19:52:00,
2013-07-02 14:58:00,87.0,69.9,29.93,NNE,19,0.0,0.0,57,0.00,,,0.00,Wunderground v.1.15,2013-07-02 19:58:00,
2013-07-02 15:03:00,87.1,70.0,29.93,NNE,19,0.0,0.0,57,0.00,,,0.00,Wunderground v.1.15,2013-07-02 20:03:00,
2013-07-02 15:13:00,86.5,72.9,29.93,NNE,19,0.0,0.0,64,0.00,,,0.00,Wunderground v.1.15,2013-07-02 20:13:00,
2013-07-02 15:22:00,85.6,71.6,29.93,NNE,19,0.0,0.0,63,0.00,,,0.00,Wunderground v.1.15,2013-07-02 20:22:00,
2013-07-02 15:27:00,85.3,72.2,29.93,NNE,19,0.0,0.0,65,0.00,,,0.00,Wunderground v.1.15,2013-07-02 20:27:00,
2013-07-02 15:33:00,84.5,72.3,29.93,NNE,19,0.0,0.0,67,0.00,,,0.00,Wunderground v.1.15,2013-07-02 20:33:00,
2013-07-02 15:38:00,83.2,72.8,29.93,SW,219,0.0,0.0,71,0.00,,,0.00,Wunderground v.1.15,2013-07-02 20:38:00,
2013-07-02 15:43:00,82.1,72.6,29.93,South,190,0.0,0.0,73,0.00,,,0.00,Wunderground v.1.15,2013-07-02 20:43:00,
2013-07-02 15:52:00,81.6,72.9,29.93,South,190,0.0,0.0,75,0.00,,,0.00,Wunderground v.1.15,2013-07-02 20:52:00,
2013-07-02 15:57:00,81.3,72.2,29.93,South,190,0.0,0.0,74,0.00,,,0.00,Wunderground v.1.15,2013-07-02 20:57:00,
2013-07-02 16:03:00,81.5,73.2,29.93,South,190,0.0,0.0,76,0.00,,,0.00,Wunderground v.1.15,2013-07-02 21:03:00,
2013-07-02 16:13:00,82.3,72.8,29.93,South,190,0.0,0.0,73,0.00,,,0.00,Wunderground v.1.15,2013-07-02 21:13:00,
2013-07-02 16:18:00,82.6,70.5,29.93,South,190,0.0,0.0,67,0.00,,,0.00,Wunderground v.1.15,2013-07-02 21:18:00,
2013-07-02 16:28:00,83.1,73.9,29.93,South,190,0.0,0.0,74,0.00,,,0.00,Wunderground v.1.15,2013-07-02 21:28:00,
2013-07-02 16:33:00,82.6,74.3,29.93,South,190,0.0,0.0,76,0.00,,,0.00,Wunderground v.1.15,2013-07-02 21:33:00,
2013-07-02 16:43:00,81.1,74.7,29.93,South,190,0.0,0.0,81,0.00,,,0.00,Wunderground v.1.15,2013-07-02 21:43:00,
2013-07-02 16:47:00,80.2,74.2,29.93,South,190,0.0,0.0,82,0.00,,,0.00,Wunderground v.1.15,2013-07-02 21:47:00,
2013-07-02 16:53:00,79.3,73.7,29.93,South,190,0.0,0.0,83,0.22,,,0.02,Wunderground v.1.15,2013-07-02 21:53:00,
2013-07-02 16:57:00,78.7,74.2,29.93,South,190,0.0,0.0,86,0.10,,,0.02,Wunderground v.1.15,2013-07-02 21:57:00,
2013-07-02 17:03:00,78.4,74.5,29.93,South,190,0.0,0.0,88,0.05,,,0.02,Wunderground v.1.15,2013-07-02 22:03:00,
2013-07-02 17:13:00,77.5,73.7,29.93,South,190,0.0,0.0,88,0.00,,,0.02,Wunderground v.1.15,2013-07-02 22:13:00,
2013-07-02 17:18:00,77.2,73.7,29.92,South,190,0.0,0.0,89,0.00,,,0.02,Wunderground v.1.15,2013-07-02 22:18:00,
2013-07-02 17:23:00,77.1,73.9,29.92,South,190,0.0,0.0,90,0.00,,,0.02,Wunderground v.1.15,2013-07-02 22:23:00,
2013-07-02 17:28:00,77.3,74.5,29.92,South,190,0.0,0.0,91,0.00,,,0.02,Wunderground v.1.15,2013-07-02 22:28:00,
2013-07-02 17:33:00,77.8,74.3,29.93,ESE,110,0.0,0.0,89,0.00,,,0.02,Wunderground v.1.15,2013-07-02 22:33:00,
2013-07-02 17:38:00,78.4,74.2,29.93,ESE,111,0.0,0.0,87,0.00,,,0.02,Wunderground v.1.15,2013-07-02 22:38:00,
2013-07-02 17:47:00,78.8,73.2,29.93,NNE,31,0.0,0.0,83,0.00,,,0.02,Wunderground v.1.15,2013-07-02 22:47:00,
2013-07-02 17:52:00,78.6,73.4,29.93,ENE,76,0.0,0.0,84,0.00,,,0.02,Wunderground v.1.15,2013-07-02 22:52:00,
2013-07-02 17:57:00,78.2,72.6,29.93,SE,130,0.0,0.0,83,0.00,,,0.02,Wunderground v.1.15,2013-07-02 22:57:00,
2013-07-02 18:02:00,77.9,72.3,29.93,SE,130,0.0,0.0,83,0.00,,,0.02,Wunderground v.1.15,2013-07-02 23:02:00,
2013-07-02 18:08:00,77.5,71.9,29.93,North,355,0.0,0.0,83,0.00,,,0.02,Wunderground v.1.15,2013-07-02 23:08:00,
2013-07-02 18:13:00,77.3,72.1,29.93,ESE,103,1.0,1.0,84,0.00,,,0.02,Wunderground v.1.15,2013-07-02 23:13:00,
2013-07-02 18:18:00,77.2,72.3,29.93,East,94,0.0,1.0,85,0.00,,,0.02,Wunderground v.1.15,2013-07-02 23:18:00,
2013-07-02 18:23:00,77.1,72.2,29.94,East,91,0.0,0.0,85,0.00,,,0.02,Wunderground v.1.15,2013-07-02 23:23:00,
2013-07-02 18:28:00,77.1,72.6,29.94,East,92,0.0,0.0,86,0.00,,,0.02,Wunderground v.1.15,2013-07-02 23:28:00,
2013-07-02 18:33:00,77.0,72.5,29.94,East,92,0.0,0.0,86,0.00,,,0.02,Wunderground v.1.15,2013-07-02 23:33:00,
2013-07-02 18:38:00,76.8,71.9,29.95,East,92,0.0,0.0,85,0.00,,,0.02,Wunderground v.1.15,2013-07-02 23:38:00,
2013-07-02 18:48:00,76.7,71.8,29.95,East,92,0.0,0.0,85,0.00,,,0.02,Wunderground v.1.15,2013-07-02 23:48:00,
2013-07-02 18:53:00,76.6,71.7,29.95,East,91,0.0,0.0,85,0.00,,,0.02,Wunderground v.1.15,2013-07-02 23:53:00,
2013-07-02 18:58:00,76.6,71.7,29.95,East,92,0.0,0.0,85,0.00,,,0.02,Wunderground v.1.15,2013-07-02 23:58:00,
2013-07-02 19:03:00,76.6,72.1,29.95,East,92,0.0,0.0,86,0.00,,,0.02,Wunderground v.1.15,2013-07-03 00:03:00,
2013-07-02 19:13:00,76.3,71.8,29.95,East,92,0.0,0.0,86,0.00,,,0.02,Wunderground v.1.15,2013-07-03 00:13:00,
2013-07-02 19:22:00,76.1,72.3,29.95,East,91,0.0,0.0,88,0.00,,,0.02,Wunderground v.1.15,2013-07-03 00:22:00,
2013-07-02 19:27:00,76.0,72.2,29.95,East,92,0.0,0.0,88,0.00,,,0.02,Wunderground v.1.15,2013-07-03 00:27:00,
2013-07-02 19:32:00,75.8,72.3,29.95,East,92,0.0,0.0,89,0.00,,,0.02,Wunderground v.1.15,2013-07-03 00:32:00,
2013-07-02 19:37:00,75.7,72.2,29.95,East,92,0.0,0.0,89,0.00,,,0.02,Wunderground v.1.15,2013-07-03 00:37:00,
2013-07-02 19:42:00,75.5,72.0,29.95,East,91,0.0,0.0,89,0.00,,,0.02,Wunderground v.1.15,2013-07-03 00:42:00,
2013-07-02 19:47:00,75.3,72.2,29.95,East,92,0.0,0.0,90,0.00,,,0.02,Wunderground v.1.15,2013-07-03 00:47:00,
2013-07-02 19:57:00,74.9,72.1,29.95,East,92,0.0,0.0,91,0.00,,,0.02,Wunderground v.1.15,2013-07-03 00:57:00,
2013-07-02 20:07:00,74.5,71.4,29.96,East,92,0.0,0.0,90,0.00,,,0.02,Wunderground v.1.15,2013-07-03 01:07:00,
2013-07-02 20:12:00,74.3,71.5,29.96,East,91,0.0,0.0,91,0.00,,,0.02,Wunderground v.1.15,2013-07-03 01:12:00,
2013-07-02 20:18:00,74.1,71.3,29.96,East,92,0.0,0.0,91,0.00,,,0.02,Wunderground v.1.15,2013-07-03 01:18:00,
2013-07-02 20:27:00,73.7,71.2,29.97,East,92,0.0,0.0,92,0.00,,,0.02,Wunderground v.1.15,2013-07-03 01:27:00,
2013-07-02 20:32:00,73.5,71.0,29.97,East,91,0.0,0.0,92,0.00,,,0.02,Wunderground v.1.15,2013-07-03 01:32:00,
2013-07-02 20:37:00,73.4,70.9,29.97,East,92,0.0,0.0,92,0.00,,,0.02,Wunderground v.1.15,2013-07-03 01:37:00,
2013-07-02 20:42:00,73.3,70.8,29.97,East,92,0.0,0.0,92,0.00,,,0.02,Wunderground v.1.15,2013-07-03 01:42:00,
2013-07-02 20:53:00,73.2,71.1,29.97,East,92,0.0,0.0,93,0.00,,,0.02,Wunderground v.1.15,2013-07-03 01:53:00,
2013-07-02 20:57:00,73.1,71.0,29.97,East,92,0.0,0.0,93,0.00,,,0.02,Wunderground v.1.15,2013-07-03 01:57:00,
2013-07-02 21:02:00,73.0,70.9,29.97,East,91,0.0,0.0,93,0.00,,,0.02,Wunderground v.1.15,2013-07-03 02:02:00,
2013-07-02 21:13:00,72.8,71.0,29.97,East,91,0.0,0.0,94,0.00,,,0.02,Wunderground v.1.15,2013-07-03 02:13:00,
2013-07-02 21:18:00,72.7,70.9,29.97,East,92,0.0,0.0,94,0.00,,,0.02,Wunderground v.1.15,2013-07-03 02:18:00,
2013-07-02 21:23:00,72.6,70.8,29.97,East,92,0.0,0.0,94,0.00,,,0.02,Wunderground v.1.15,2013-07-03 02:23:00,
2013-07-02 21:28:00,72.5,70.7,29.97,East,92,0.0,0.0,94,0.00,,,0.02,Wunderground v.1.15,2013-07-03 02:28:00,
2013-07-02 21:47:00,72.4,70.9,29.98,East,92,0.0,0.0,95,0.00,,,0.02,Wunderground v.1.15,2013-07-03 02:47:00,
2013-07-02 21:52:00,72.4,70.9,29.98,East,91,0.0,0.0,95,0.00,,,0.02,Wunderground v.1.15,2013-07-03 02:52:00,
2013-07-02 21:57:00,72.3,70.8,29.98,East,92,0.0,0.0,95,0.00,,,0.02,Wunderground v.1.15,2013-07-03 02:57:00,
2013-07-02 22:02:00,72.3,70.8,29.98,East,92,0.0,0.0,95,0.00,,,0.02,Wunderground v.1.15,2013-07-03 03:02:00,
2013-07-02 22:07:00,72.3,70.8,29.99,East,92,0.0,0.0,95,0.00,,,0.02,Wunderground v.1.15,2013-07-03 03:07:00,
2013-07-02 22:13:00,72.3,70.8,29.99,East,92,0.0,0.0,95,0.00,,,0.02,Wunderground v.1.15,2013-07-03 03:13:00,
2013-07-02 22:23:00,72.2,70.7,29.99,East,91,0.0,0.0,95,0.00,,,0.02,Wunderground v.1.15,2013-07-03 03:23:00,
2013-07-02 22:33:00,72.2,70.7,29.99,East,92,0.0,0.0,95,0.00,,,0.02,Wunderground v.1.15,2013-07-03 03:33:00,
2013-07-02 22:38:00,72.2,70.7,29.99,East,91,0.0,0.0,95,0.00,,,0.02,Wunderground v.1.15,2013-07-03 03:38:00,
2013-07-02 22:47:00,72.1,70.6,29.99,East,92,0.0,0.0,95,0.00,,,0.02,Wunderground v.1.15,2013-07-03 03:47:00,
2013-07-02 22:53:00,72.0,70.5,29.99,East,92,0.0,0.0,95,0.00,,,0.02,Wunderground v.1.15,2013-07-03 03:53:00,
2013-07-02 23:03:00,71.9,70.4,29.99,East,91,0.0,0.0,95,0.00,,,0.02,Wunderground v.1.15,2013-07-03 04:03:00,
2013-07-02 23:07:00,71.9,70.4,29.99,East,92,0.0,0.0,95,0.00,,,0.02,Wunderground v.1.15,2013-07-03 04:07:00,
2013-07-02 23:13:00,72.0,70.5,29.99,East,92,0.0,0.0,95,0.00,,,0.02,Wunderground v.1.15,2013-07-03 04:13:00,
2013-07-02 23:18:00,72.0,70.5,29.99,East,92,0.0,0.0,95,0.00,,,0.02,Wunderground v.1.15,2013-07-03 04:18:00,
2013-07-02 23:23:00,72.0,70.5,29.99,East,92,0.0,0.0,95,0.00,,,0.02,Wunderground v.1.15,2013-07-03 04:23:00,
2013-07-02 23:28:00,72.0,70.5,29.99,East,91,0.0,0.0,95,0.00,,,0.02,Wunderground v.1.15,2013-07-03 04:28:00,
2013-07-02 23:33:00,72.0,70.5,29.99,East,91,0.0,0.0,95,0.00,,,0.02,Wunderground v.1.15,2013-07-03 04:33:00,
2013-07-02 23:38:00,72.0,70.5,29.99,East,92,0.0,0.0,95,0.00,,,0.02,Wunderground v.1.15,2013-07-03 04:38:00,
2013-07-02 23:43:00,72.0,70.5,29.99,East,92,0.0,0.0,95,0.00,,,0.02,Wunderground v.1.15,2013-07-03 04:43:00,
2013-07-02 23:48:00,72.1,70.6,29.99,East,92,0.0,0.0,95,0.00,,,0.02,Wunderground v.1.15,2013-07-03 04:48:00,
2013-07-02 23:53:00,72.1,70.6,29.99,East,91,0.0,0.0,95,0.00,,,0.02,Wunderground v.1.15,2013-07-03 04:53:00,